Mc Comas, West Virginia
Current Conditions -  °F | °C
As of 9:52 PM on Wednesday 22 Oct 2014 (Local Time) from KBLF Reporting Station
Overcast Overcast  
Wind Chill: 41°   Ceiling: 1000
Heat Index: 44°   Visibility: 10mi
Dew Point: 40°   Wind: 6mph
Humidity: 85%   Direction: 310°NW
Pressure: 30.17"   Gusts: NA
Location:  37.3892°N, 81.2383°W
Report Text: KBLF 230152Z AUTO 31005KT 10SM SCT006 BKN010 OVC019 07/04 A3017 RMK AO2 SLP218 T00670044
Loading
Personal Weather Stations






























Interactive Weather Map
Tropical Storm Tracking
New forecast layout! Learn more

10-Day Weather Forecast

Advertisements
Track Severe Weather on mobile